.
WxDataArchive / Data Records for 2009-05-26
2009-05-25 May 2009 2009-05-27

Data Records for Tuesday, 26 May 2009

Time	Temp	Chill	HIndex	Humid	Dewpt	 Wind 	HiWind	WindDir	Rain 	Barom 
-----	----	-----	------	-----	-----	------	------	-------	-----	----- 
00:00	62.4	62.4	62.4	40	37.8	2	4	90	0.00	29.989 
00:05	62.4	62.4	62.4	40	37.8	2	7	90	0.00	29.989 
00:10	62.3	62.3	62.3	40	37.7	3	7	90	0.00	29.989 
00:15	62.3	62.3	62.3	40	37.7	3	6	90	0.00	29.988 
00:20	62.1	62.1	62.1	40	37.5	4	11	90	0.00	29.988 
00:25	62.1	62.1	62.1	40	37.5	3	9	90	0.00	29.988 
00:30	62.3	62.3	62.3	41	38.3	4	13	112	0.00	29.986 
00:35	62.1	62.1	62.1	40	37.5	3	7	90	0.00	29.986 
00:40	62.1	62.1	62.1	41	38.1	3	9	90	0.00	29.986 
00:45	62.0	62.0	62.0	41	38.0	5	10	90	0.00	29.980 
00:50	62.0	62.0	62.0	42	38.6	3	9	90	0.00	29.980 
00:55	61.8	61.8	61.8	43	39.1	4	13	90	0.00	29.980 
01:00	61.8	61.8	61.8	43	39.1	4	10	90	0.00	29.982 
01:05	61.8	61.8	61.8	44	39.7	3	10	90	0.00	29.982 
01:10	61.8	61.8	61.8	45	40.2	4	7	90	0.00	29.982 
01:15	61.6	61.6	61.6	46	40.6	3	10	90	0.00	29.978 
01:20	61.6	61.6	61.6	46	40.6	3	8	90	0.00	29.978 
01:25	61.5	61.5	61.5	47	41.1	3	10	90	0.00	29.978 
01:30	61.3	61.3	61.3	47	40.9	3	6	90	0.00	29.973 
01:35	61.3	61.3	61.3	48	41.4	3	8	90	0.00	29.973 
01:40	61.2	61.2	61.2	48	41.3	3	8	90	0.00	29.973 
01:45	61.2	61.2	61.2	48	41.3	2	6	90	0.00	29.969 
01:50	61.2	61.2	61.2	49	41.9	3	7	90	0.00	29.969 
01:55	61.0	61.0	61.0	49	41.7	2	4	90	0.00	29.969 
02:00	61.0	61.0	61.0	49	41.7	3	7	90	0.00	29.966 
02:05	61.0	61.0	61.0	49	41.7	3	11	90	0.00	29.966 
02:10	60.9	60.9	60.9	49	41.6	3	10	90	0.00	29.966 
02:15	60.9	60.9	60.9	49	41.6	4	10	90	0.00	29.961 
02:20	60.9	60.9	60.9	49	41.6	2	5	90	0.00	29.961 
02:25	60.7	60.7	60.7	50	41.9	2	4	90	0.00	29.961 
02:30	60.7	60.7	60.7	50	41.9	3	5	90	0.00	29.961 
02:35	60.5	60.5	60.5	50	41.8	3	9	90	0.00	29.961 
02:40	60.5	60.5	60.5	51	42.3	2	7	112	0.00	29.961 
02:45	60.5	60.5	60.5	50	41.8	3	10	90	0.00	29.958 
02:50	60.5	60.5	60.5	51	42.3	3	13	90	0.00	29.958 
02:55	60.5	60.5	60.5	52	42.8	2	6	112	0.00	29.958 
03:00	60.5	60.5	60.5	52	42.8	2	7	90	0.00	29.948 
03:05	60.4	60.4	60.4	52	42.7	3	9	90	0.00	29.948 
03:10	60.4	60.4	60.4	52	42.7	3	10	90	0.00	29.948 
03:15	60.4	60.4	60.4	53	43.2	3	8	90	0.00	29.942 
03:20	60.4	60.4	60.4	53	43.2	2	6	90	0.00	29.942 
03:25	60.2	60.2	60.2	53	43.0	3	9	90	0.00	29.942 
03:30	60.2	60.2	60.2	53	43.0	2	6	112	0.00	29.940 
03:35	60.1	60.1	60.1	54	43.4	2	4	112	0.00	29.940 
03:40	60.1	60.1	60.1	54	43.4	2	8	90	0.00	29.940 
03:45	60.1	60.1	60.1	54	43.4	2	5	90	0.00	29.936 
03:50	60.1	60.1	60.1	54	43.4	2	5	90	0.00	29.936 
03:55	60.1	60.1	60.1	54	43.4	2	7	90	0.00	29.936 
04:00	59.9	59.9	59.9	54	43.2	2	6	90	0.00	29.930 
04:05	59.9	59.9	59.9	55	43.7	2	7	90	0.00	29.930 
04:10	59.9	59.9	59.9	56	44.2	2	5	90	0.00	29.930 
04:15	59.8	59.8	59.8	56	44.1	3	7	90	0.00	29.931 
04:20	59.8	59.8	59.8	56	44.1	2	7	90	0.00	29.931 
04:25	59.8	59.8	59.8	56	44.1	1	3	90	0.00	29.931 
04:30	59.6	59.6	59.6	57	44.3	2	4	112	0.00	29.925 
04:35	59.6	59.6	59.6	57	44.3	2	4	90	0.00	29.925 
04:40	59.5	59.5	59.5	58	44.7	2	5	90	0.00	29.925 
04:45	59.5	59.5	59.5	58	44.7	1	4	90	0.00	29.925 
04:50	59.5	59.5	59.5	58	44.7	2	6	90	0.00	29.925 
04:55	59.3	59.3	59.3	58	44.5	2	6	90	0.00	29.925 
05:00	59.3	59.3	59.3	58	44.5	2	5	112	0.00	29.918 
05:05	59.3	59.3	59.3	58	44.5	2	6	112	0.00	29.918 
05:10	59.3	59.3	59.3	59	45.0	2	4	90	0.00	29.918 
05:15	59.3	59.3	59.3	59	45.0	2	7	90	0.00	29.918 
05:20	59.3	59.3	59.3	59	45.0	2	5	90	0.00	29.918 
05:25	59.3	59.3	59.3	59	45.0	2	5	90	0.00	29.918 
05:30	59.3	59.3	59.3	60	45.4	2	5	90	0.00	29.913 
05:35	59.2	59.2	59.2	60	45.3	2	5	90	0.00	29.913 
05:40	59.2	59.2	59.2	60	45.3	2	5	90	0.00	29.913 
05:45	59.3	59.3	59.3	61	45.8	1	4	112	0.00	29.917 
05:50	59.3	59.3	59.3	61	45.8	1	4	90	0.00	29.917 
05:55	59.3	59.3	59.3	61	45.8	1	5	90	0.00	29.917 
06:00	59.3	59.3	59.3	61	45.8	1	6	90	0.00	29.920 
06:05	59.3	59.3	59.3	62	46.3	1	4	90	0.00	29.920 
06:10	59.3	59.3	59.3	61	45.8	2	4	112	0.00	29.920 
06:15	59.3	59.3	59.3	62	46.3	1	4	112	0.00	29.925 
06:20	59.5	59.5	59.5	62	46.5	2	4	112	0.00	29.925 
06:25	59.5	59.5	59.5	62	46.5	2	5	112	0.00	29.925 
06:30	59.3	59.3	59.3	62	46.3	1	4	90	0.00	29.922 
06:35	59.3	59.3	59.3	62	46.3	2	5	90	0.00	29.922 
06:40	59.3	59.3	59.3	63	46.7	1	2	90	0.00	29.922 
06:45	59.3	59.3	59.3	63	46.7	2	5	90	0.00	29.922 
06:50	59.5	59.5	59.5	63	46.9	2	3	68	0.00	29.922 
06:55	59.5	59.5	59.5	63	46.9	1	5	68	0.00	29.922 
07:00	59.5	59.5	59.5	64	47.3	1	4	90	0.00	29.927 
07:05	59.5	59.5	59.5	64	47.3	1	4	90	0.00	29.927 
07:10	59.3	59.3	59.3	64	47.1	1	3	90	0.00	29.927 
07:15	59.3	59.3	59.3	64	47.1	1	4	90	0.00	29.931 
07:20	59.3	59.3	59.3	65	47.5	1	3	90	0.00	29.931 
07:25	59.5	59.5	59.5	65	47.7	1	3	90	0.00	29.931 
07:30	59.5	59.5	59.5	65	47.7	1	4	90	0.00	29.933 
07:35	59.5	59.5	59.5	65	47.7	2	6	112	0.00	29.933 
07:40	59.6	59.6	59.6	65	47.8	2	5	112	0.00	29.933 
07:45	59.6	59.6	59.6	65	47.8	2	5	112	0.00	29.937 
07:50	59.6	59.6	59.6	65	47.8	2	6	90	0.00	29.937 
07:55	59.8	59.8	59.8	65	48.0	1	3	68	0.00	29.937 
08:00	59.8	59.8	59.8	65	48.0	1	3	68	0.00	29.941 
08:05	59.8	59.8	59.8	65	48.0	3	6	90	0.00	29.941 
08:10	59.8	59.8	59.8	65	48.0	2	5	90	0.00	29.941 
08:15	59.8	59.8	59.8	66	48.4	1	5	90	0.00	29.940 
08:20	59.9	59.9	59.9	66	48.5	2	4	90	0.00	29.940 
08:25	59.9	59.9	59.9	65	48.1	3	5	112	0.00	29.940 
08:30	59.9	59.9	59.9	66	48.5	2	6	90	0.00	29.936 
08:35	60.1	60.1	60.1	65	48.3	3	9	90	0.00	29.936 
08:40	60.1	60.1	60.1	66	48.7	3	10	90	0.00	29.936 
08:45	60.1	60.1	60.1	66	48.7	3	7	90	0.00	29.930 
08:50	60.1	60.1	60.1	66	48.7	3	6	90	0.00	29.930 
08:55	60.2	60.2	60.2	66	48.8	2	5	112	0.00	29.930 
09:00	60.5	60.5	60.5	66	49.1	2	5	90	0.00	29.924 
09:05	61.0	61.0	61.0	66	49.6	2	7	90	0.00	29.924 
09:10	61.5	61.5	61.5	66	50.0	2	5	90	0.00	29.924 
09:15	62.0	62.0	62.0	65	50.1	2	5	90	0.00	29.925 
09:20	62.4	62.4	62.4	64	50.1	2	7	90	0.00	29.925 
09:25	62.7	62.7	62.7	65	50.8	1	2	112	0.00	29.925 
09:30	62.7	62.7	62.7	63	49.9	2	5	90	0.00	29.930 
09:35	62.7	62.7	62.7	64	50.3	2	5	90	0.00	29.930 
09:40	63.5	63.5	63.5	63	50.7	2	4	90	0.00	29.930 
09:45	64.3	64.3	64.3	61	50.6	2	5	90	0.00	29.931 
09:50	64.2	64.2	64.2	62	50.9	3	5	90	0.00	29.931 
09:55	63.9	63.9	63.9	62	50.6	2	5	90	0.00	29.931 
10:00	63.7	63.7	63.7	63	50.9	2	4	90	0.00	29.928 
10:05	64.0	64.0	64.0	63	51.1	2	6	68	0.00	29.928 
10:10	64.5	64.5	64.5	62	51.2	2	5	90	0.00	29.928 
10:15	64.8	64.8	64.8	61	51.0	2	6	90	0.00	29.924 
10:20	64.8	64.8	64.8	64	52.3	3	6	112	0.00	29.924 
10:25	65.0	65.0	65.0	63	52.1	3	10	90	0.00	29.924 
10:30	65.5	65.5	65.5	62	52.1	3	7	90	0.00	29.919 
10:35	66.0	66.0	66.0	61	52.2	3	7	90	0.00	29.919 
10:40	66.6	66.6	66.6	60	52.3	2	6	90	0.00	29.919 
10:45	67.3	67.3	67.3	60	52.9	2	7	90	0.00	29.913 
10:50	67.9	67.9	67.9	60	53.5	2	5	90	0.00	29.913 
10:55	68.6	68.6	68.6	59	53.7	1	4	90	0.00	29.913 
11:00	69.4	69.4	69.4	58	54.0	2	4	90	0.00	29.912 
11:05	69.6	69.6	69.6	59	54.6	2	5	90	0.00	29.912 
11:10	69.9	69.9	69.9	58	54.4	2	4	90	0.00	29.912 
11:15	70.1	70.1	70.1	58	54.6	2	5	90	0.00	29.913 
11:20	70.3	70.3	70.3	58	54.8	2	5	68	0.00	29.913 
11:25	70.4	70.4	70.4	58	54.9	2	5	90	0.00	29.913 
11:30	71.1	71.1	71.1	56	54.6	2	6	90	0.00	29.906 
11:35	71.3	71.3	71.3	58	55.7	2	5	90	0.00	29.906 
11:40	71.8	71.8	71.8	57	55.7	2	5	90	0.00	29.906 
11:45	72.1	72.1	72.1	56	55.5	3	5	90	0.00	29.904 
11:50	72.3	72.3	72.3	57	56.2	2	5	90	0.00	29.904 
11:55	72.3	72.3	72.3	56	55.7	3	7	90	0.00	29.904 
12:00	73.0	73.0	73.0	56	56.4	1	4	135	0.00	29.902 
12:05	73.7	73.7	73.7	55	56.5	2	5	90	0.00	29.902 
12:10	74.2	74.2	74.2	55	57.0	1	3	68	0.00	29.902 
12:15	74.7	74.7	74.7	56	57.9	2	5	90	0.00	29.896 
12:20	74.9	74.9	74.9	56	58.1	3	6	90	0.00	29.896 
12:25	75.3	75.3	77.7	54	57.5	1	5	90	0.00	29.896 
12:30	75.6	75.6	77.9	54	57.8	2	7	90	0.00	29.889 
12:35	76.3	76.3	78.3	54	58.4	2	4	90	0.00	29.889 
12:40	76.5	76.5	78.4	55	59.1	2	5	90	0.00	29.889 
12:45	76.7	76.7	78.5	55	59.3	2	4	90	0.00	29.888 
12:50	76.8	76.8	78.5	53	58.4	2	6	112	0.00	29.888 
12:55	76.7	76.7	78.5	53	58.3	3	6	90	0.00	29.888 
13:00	77.2	77.2	78.8	53	58.7	3	7	90	0.00	29.878 
13:05	77.4	77.4	79.0	54	59.4	3	6	90	0.00	29.878 
13:10	77.6	77.6	79.0	51	58.0	4	9	90	0.00	29.878 
13:15	77.7	77.7	79.1	52	58.6	3	6	112	0.00	29.872 
13:20	77.9	77.9	79.2	51	58.3	1	4	90	0.00	29.872 
13:25	78.3	78.3	79.6	52	59.2	2	6	68	0.00	29.872 
13:30	78.8	78.8	79.8	50	58.6	1	5	112	0.00	29.862 
13:35	79.4	79.4	80.3	50	59.1	2	5	112	0.00	29.862 
13:40	79.6	79.6	80.4	49	58.7	2	6	90	0.00	29.862 
13:45	79.6	79.6	80.6	52	60.4	2	5	90	0.00	29.858 
13:50	80.1	80.1	81.1	52	60.9	1	5	68	0.00	29.858 
13:55	80.7	80.7	81.4	50	60.3	3	9	90	0.00	29.858 
14:00	80.5	80.5	81.0	48	59.0	3	6	90	0.00	29.844 
14:05	80.7	80.7	81.7	52	61.4	2	4	90	0.00	29.844 
14:10	81.2	81.2	81.9	50	60.8	1	4	112	0.00	29.844 
14:15	81.4	81.4	82.0	49	60.4	2	5	90	0.00	29.842 
14:20	81.2	81.2	82.1	51	61.3	1	4	90	0.00	29.842 
14:25	81.2	81.2	82.1	51	61.3	2	5	112	0.00	29.842 
14:30	81.2	81.2	81.8	49	60.2	1	6	68	0.00	29.834 
14:35	81.6	81.6	82.5	51	61.7	1	5	90	0.00	29.834 
14:40	81.6	81.6	82.3	50	61.1	2	7	90	0.00	29.834 
14:45	81.6	81.6	82.5	51	61.7	2	5	90	0.00	29.826 
14:50	82.4	82.4	83.7	53	63.5	1	3	90	0.00	29.826 
14:55	82.8	82.8	83.5	49	61.7	3	6	90	0.00	29.826 
15:00	82.6	82.6	83.4	50	62.0	2	5	90	0.00	29.814 
15:05	83.0	83.0	83.5	48	61.3	2	6	90	0.00	29.814 
15:10	82.2	82.2	83.0	50	61.7	2	6	90	0.00	29.814 
15:15	81.8	81.8	82.8	52	62.4	2	7	90	0.00	29.811 
15:20	82.2	82.2	83.0	50	61.7	1	4	112	0.00	29.811 
15:25	83.0	83.0	83.5	48	61.3	2	5	112	0.00	29.811 
15:30	83.0	83.0	83.7	49	61.8	2	5	112	0.00	29.798 
15:35	82.6	82.6	83.4	50	62.0	2	9	90	0.00	29.798 
15:40	82.4	82.4	83.2	50	61.9	1	3	112	0.00	29.798 
15:45	81.8	81.8	83.0	53	63.0	1	6	158	0.00	29.794 
15:50	80.7	80.7	82.8	61	66.0	1	4	90	0.01	29.794 
15:55	79.6	79.6	81.9	66	67.2	1	3	112	0.00	29.794 
16:00	79.0	79.0	81.3	68	67.5	1	3	112	0.00	29.795 
16:05	78.6	78.6	80.7	67	66.7	2	4	90	0.00	29.795 
16:10	78.5	78.5	80.5	66	66.2	1	3	90	0.00	29.795 
16:15	78.8	78.8	80.9	66	66.5	2	5	90	0.00	29.783 
16:20	79.6	79.6	81.3	60	64.5	2	5	90	0.00	29.783 
16:25	80.1	80.1	81.9	60	64.9	2	6	112	0.00	29.783 
16:30	80.7	80.7	82.5	59	65.0	2	9	90	0.00	29.773 
16:35	81.1	81.1	82.9	58	64.9	2	5	90	0.00	29.773 
16:40	81.4	81.4	83.3	58	65.2	1	5	90	0.00	29.773 
16:45	81.6	81.6	83.1	55	63.8	1	3	135	0.00	29.766 
16:50	81.8	81.8	83.6	57	65.0	1	4	112	0.00	29.766 
16:55	81.8	81.8	83.5	56	64.5	2	5	90	0.00	29.766 
17:00	81.6	81.6	83.1	55	63.8	1	5	90	0.00	29.766 
17:05	82.2	82.2	83.6	54	63.9	2	10	90	0.00	29.766 
17:10	83.0	83.0	84.1	51	63.0	1	5	90	0.00	29.766 
17:15	83.6	83.6	85.0	52	64.1	3	5	90	0.00	29.763 
17:20	84.0	84.0	85.8	53	65.0	1	4	90	0.00	29.763 
17:25	84.1	84.1	84.8	48	62.3	2	5	112	0.00	29.763 
17:30	83.8	83.8	84.9	50	63.1	1	5	90	0.00	29.752 
17:35	83.8	83.8	85.5	53	64.8	1	3	90	0.00	29.752 
17:40	84.0	84.0	85.3	51	63.9	2	9	90	0.00	29.752 
17:45	83.8	83.8	84.9	50	63.1	2	6	90	0.00	29.748 
17:50	83.4	83.4	84.4	50	62.8	2	5	90	0.00	29.748 
17:55	83.0	83.0	83.9	50	62.4	3	7	112	0.00	29.748 
18:00	82.6	82.6	83.4	50	62.0	1	4	90	0.00	29.747 
18:05	82.4	82.4	83.4	51	62.4	1	3	90	0.00	29.747 
18:10	82.2	82.2	83.5	53	63.3	2	7	112	0.00	29.747 
18:15	81.6	81.6	83.2	56	64.4	2	7	90	0.00	29.746 
18:20	81.2	81.2	83.0	58	65.0	2	6	90	0.00	29.746 
18:25	80.5	80.5	82.5	61	65.8	1	3	112	0.01	29.746 
18:30	79.8	79.8	81.8	62	65.6	1	3	45	0.00	29.748 
18:35	79.2	79.2	81.1	63	65.5	0	2	135	0.00	29.748 
18:40	79.0	79.0	80.9	63	65.3	0	2	135	0.00	29.748 
18:45	78.6	78.6	80.5	64	65.4	0	1	135	0.00	29.749 
18:50	78.6	78.6	80.4	63	64.9	0	1	135	0.00	29.749 
18:55	78.6	78.6	80.4	62	64.5	0	2	135	0.00	29.749 
19:00	78.6	78.6	80.4	63	64.9	0	1	135	0.00	29.745 
19:05	78.6	78.6	80.4	62	64.5	1	5	68	0.00	29.745 
19:10	78.5	78.5	80.4	64	65.3	1	4	112	0.00	29.745 
19:15	77.9	77.9	79.7	65	65.2	1	4	90	0.00	29.764 
19:20	76.5	76.5	78.0	76	68.4	3	7	90	0.18	29.764 
19:25	73.5	73.5	73.5	85	68.7	3	7	90	0.11	29.764 
19:30	72.3	72.3	72.3	88	68.5	0	2	90	0.05	29.765 
19:35	71.6	71.6	71.6	89	68.2	0	3	90	0.00	29.765 
19:40	71.1	71.1	71.1	90	68.0	0	1	90	0.00	29.765 
19:45	70.8	70.8	70.8	91	68.0	0	1	90	0.00	29.773 
19:50	70.6	70.6	70.6	92	68.2	0	1	90	0.00	29.773 
19:55	70.6	70.6	70.6	93	68.5	1	2	90	0.00	29.773 
20:00	70.4	70.4	70.4	93	68.3	1	2	90	0.00	29.772 
20:05	70.3	70.3	70.3	93	68.2	1	4	90	0.00	29.772 
20:10	69.9	69.9	69.9	93	67.8	1	4	68	0.00	29.772 
20:15	69.8	69.8	69.8	94	68.0	0	1	90	0.00	29.781 
20:20	69.6	69.6	69.6	94	67.8	0	2	90	0.00	29.781 
20:25	69.4	69.4	69.4	94	67.6	0	1	90	0.01	29.781 
20:30	69.4	69.4	69.4	94	67.6	1	2	90	0.10	29.784 
20:35	69.3	69.3	69.3	94	67.5	2	5	112	0.00	29.784 
20:40	69.1	69.1	69.1	94	67.3	2	5	90	0.00	29.784 
20:45	68.9	68.9	68.9	94	67.1	3	5	112	0.00	29.784 
20:50	68.8	68.8	68.8	93	66.7	2	6	90	0.00	29.784 
20:55	68.4	68.4	68.4	92	66.0	5	11	90	0.02	29.784 
21:00	68.4	68.4	68.4	93	66.3	3	7	112	0.01	29.787 
21:05	68.1	68.1	68.1	93	66.0	2	6	90	0.00	29.787 
21:10	67.9	67.9	67.9	93	65.8	1	7	68	0.00	29.787 
21:15	67.4	67.4	67.4	92	65.0	1	6	112	0.00	29.781 
21:20	67.3	67.3	67.3	93	65.2	1	4	112	0.00	29.781 
21:25	66.9	66.9	66.9	93	64.8	1	3	90	0.00	29.781 
21:30	66.8	66.8	66.8	93	64.7	3	9	90	0.00	29.788 
21:35	66.6	66.6	66.6	93	64.5	2	7	90	0.00	29.788 
21:40	66.4	66.4	66.4	93	64.3	3	6	90	0.00	29.788 
21:45	66.3	66.3	66.3	93	64.2	2	6	112	0.00	29.790 
21:50	66.3	66.3	66.3	93	64.2	2	5	112	0.01	29.790 
21:55	66.3	66.3	66.3	93	64.2	2	4	90	0.00	29.790 
22:00	66.1	66.1	66.1	93	64.0	2	7	90	0.00	29.799 
22:05	66.1	66.1	66.1	93	64.0	1	5	90	0.00	29.799 
22:10	66.1	66.1	66.1	94	64.3	1	5	90	0.00	29.799 
22:15	66.3	66.3	66.3	94	64.5	1	4	90	0.01	29.802 
22:20	66.1	66.1	66.1	94	64.3	1	4	90	0.05	29.802 
22:25	66.1	66.1	66.1	94	64.3	2	4	90	0.01	29.802 
22:30	66.0	66.0	66.0	94	64.2	2	5	112	0.01	29.798 
22:35	65.8	65.8	65.8	95	64.3	2	4	112	0.00	29.798 
22:40	65.6	65.6	65.6	95	64.1	1	3	112	0.00	29.798 
22:45	65.6	65.6	65.6	95	64.1	1	3	112	0.00	29.802 
22:50	65.6	65.6	65.6	95	64.1	0	2	112	0.01	29.802 
22:55	65.6	65.6	65.6	95	64.1	0	2	112	0.01	29.802 
23:00	65.6	65.6	65.6	95	64.1	0	1	112	0.01	29.793 
23:05	65.8	65.8	65.8	95	64.3	1	3	112	0.00	29.793 
23:10	65.6	65.6	65.6	95	64.1	1	4	90	0.00	29.793 
23:15	65.8	65.8	65.8	95	64.3	0	2	90	0.00	29.784 
23:20	65.8	65.8	65.8	96	64.6	0	2	90	0.00	29.784 
23:25	66.0	66.0	66.0	96	64.8	1	2	90	0.00	29.784 
23:30	66.0	66.0	66.0	96	64.8	0	1	90	0.00	29.782 
23:35	66.1	66.1	66.1	96	64.9	0	1	90	0.00	29.782 
23:40	66.1	66.1	66.1	96	64.9	0	2	90	0.00	29.782 
23:45	66.1	66.1	66.1	96	64.9	0	1	90	0.00	29.781 
23:50	66.0	66.0	66.0	96	64.8	1	4	90	0.00	29.781 
23:55	66.0	66.0	66.0	96	64.8	0	2	90	0.00	29.781 

CoCoRaHS
IN-AL-39
A2 Web Hosting
Creative Commons License
GoDaddy
search engine by freefind advanced

loaded 2018-11-17 18:12:10 • last modified 2010-11-18 10:43:29
Privacy PolicyDisclaimer
• wx.awcolley.com is powered by PmWiki v.2002016 •
• all content (unless otherwise noted) © 2018 A W Colley